Terminal Aerodrome Forecast
Issued by NWS

Home | Current Version | Previous Version | Text Only | Print | Product List | Glossary On
Versions: 1 2 3 4 5 6 7 8 9 10 11 12 13 14 15 16 17 18 19 20 21 22 23 24 25 26 27 28
468
FTUS41 KBOX 271120
TAFFMH
TAF
KFMH 271120Z 2712/2812 19005KT P6SM SCT012 BKN080
     FM271400 19009G17KT P6SM BKN080
     FM280500 VRB03KT P6SM SCT250=

USA.gov is the U.S. government's official web portal to all federal, state and local government web resources and services.